Swampscott, MA

12:00 AM EDT on September 24, 2014 (GMT -0400)
Beachhurst | Change Station
CLOSE
Current Station
Personal Weather Station
Location: Swampscott, MA
Elevation: 45 ft
Nearby Weather Stations

Elev 45 ft 42.46 °N, 70.90 °W | Updated 5 seconds ago

Clear
Clear
58.4 °F
Feels Like 58.4 °F
N
2.0
Wind Variable Wind from NNW
Gusts 6.0 mph

Today
High -- | Low -- °F
--% Chance of Precip.
Yesterday
High -- | Low -- °F
Precip. -- in
6:33 AM 6:37 PM
Waning Crescent, 0% visible
Pressure 30.41 in
Visibility 10.0 miles
Clouds Clear
Dew Point 50 °F
Humidity 74%
Rainfall 0.00 in
Snow Depth Not available.
UV 0.0 out of 12
Pollen 3.20 out of 12
Air Quality Not available.
Flu Activity Not available.
METAR KBVY 240353Z AUTO 32003KT 10SM CLR 11/08 A3042 RMK AO2 SLP297 T01060083

More Conditions Fewer Conditions

Pressure 30.41 in
Visibility 10.0 miles
Clouds Clear
Dew Point 50 °F
Humidity 74%
Rainfall 0.00 in
Snow Depth Not available.
UV 0.0 out of 12
Pollen 3.20 out of 12
Air Quality Not available.
Flu Activity Not available.
METAR KBVY 240353Z AUTO 32003KT 10SM CLR 11/08 A3042 RMK AO2 SLP297 T01060083

More Conditions Fewer Conditions

10-Day Weather Forecast

Almanac

Astronomy

Sep. 24, 2014 Rise Set
Actual Time 6:33 AM EDT 6:37 PM EDT
Civil Twilight 6:05 AM EDT 7:05 PM EDT
Nautical Twilight 5:32 AM EDT 7:38 PM EDT
Astronomical Twilight 4:58 AM EDT 8:11 PM EDT
Moon 6:51 AM EDT 6:45 PM EDT
Length of Visible Light 13h 00m
Length of Day
12h 04m
Tomorrow will be 2m 51s shorter.
Waning Crescent, 0% of the Moon is Illuminated
Today
Waning Crescent
Sep 24
New
Oct 1
First Quarter
Oct 8
Full
Oct 15
Last Quarter

Yesterday's Extremes

State Highs State Lows

Community

WunderPhotos

Upload Photos

1,755,882 photos uploaded!

WunderBlogs® & News

Nearby

Air Quality

  Air Quality AQ Index Pollutant
Yesterday Good
OZONE
Yesterday Good
PM2.5
Tuesday Good
PM2.5
Tuesday Good
OZONE
Wednesday Good
PM2.5
Wednesday Good
OZONE

Snow Depth

Station Depth Elevation
No new snow has been reported.

Earthquake Activity

City Distance Mag. Time & Date
No recent earthquake activity has been reported nearby.
Minimum magnitude displayed is 2.5.

Coastal Water Temperatures

Place Temperature
Boston, MA 63.0 °F
Providence, RI 66.9 °F
Fall River, MA 69.1 °F
Conimicut Light, RI 68.0 °F

Nearby Weather Stations